sensor_id;sensor_type;location;lat;lon;timestamp;pressure;altitude;pressure_sealevel;temperature;humidity
63111;BME280;49201;53.426;10.300;2023-03-18T00:01:05;100862.66;;;10.21;100.00
63111;BME280;49201;53.426;10.300;2023-03-18T00:03:33;100865.22;;;10.21;100.00
63111;BME280;49201;53.426;10.300;2023-03-18T00:06:07;100865.22;;;10.21;100.00
63111;BME280;49201;53.426;10.300;2023-03-18T00:08:33;100874.56;;;10.21;100.00
63111;BME280;49201;53.426;10.300;2023-03-18T00:10:59;100867.66;;;10.17;100.00
63111;BME280;49201;53.426;10.300;2023-03-18T00:13:25;100866.63;;;10.07;100.00
63111;BME280;49201;53.426;10.300;2023-03-18T00:15:52;100862.38;;;10.09;100.00
63111;BME280;49201;53.426;10.300;2023-03-18T00:18:18;100865.06;;;10.14;100.00
63111;BME280;49201;53.426;10.300;2023-03-18T00:20:43;100857.38;;;10.14;100.00
63111;BME280;49201;53.426;10.300;2023-03-18T00:23:09;100853.13;;;10.14;100.00
63111;BME280;49201;53.426;10.300;2023-03-18T00:25:36;100853.13;;;10.14;100.00
63111;BME280;49201;53.426;10.300;2023-03-18T00:28:04;100856.53;;;10.15;100.00
63111;BME280;49201;53.426;10.300;2023-03-18T00:30:31;100856.50;;;10.13;100.00
63111;BME280;49201;53.426;10.300;2023-03-18T00:32:57;100857.13;;;10.03;100.00
63111;BME280;49201;53.426;10.300;2023-03-18T00:35:24;100863.91;;;10.01;100.00
63111;BME280;49201;53.426;10.300;2023-03-18T00:37:52;100858.72;;;9.98;100.00
63111;BME280;49201;53.426;10.300;2023-03-18T00:40:19;100855.41;;;10.02;100.00
63111;BME280;49201;53.426;10.300;2023-03-18T00:42:51;100857.06;;;10.02;100.00
63111;BME280;49201;53.426;10.300;2023-03-18T00:45:22;100849.38;;;10.00;100.00
63111;BME280;49201;53.426;10.300;2023-03-18T00:47:48;100861.16;;;9.94;100.00
63111;BME280;49201;53.426;10.300;2023-03-18T00:50:15;100857.72;;;9.92;100.00
63111;BME280;49201;53.426;10.300;2023-03-18T00:52:41;100865.31;;;9.89;100.00
63111;BME280;49201;53.426;10.300;2023-03-18T00:55:07;100866.16;;;9.88;100.00
63111;BME280;49201;53.426;10.300;2023-03-18T00:57:33;100872.88;;;9.84;100.00
63111;BME280;49201;53.426;10.300;2023-03-18T00:59:58;100877.13;;;9.84;100.00
63111;BME280;49201;53.426;10.300;2023-03-18T01:02:25;100873.78;;;9.86;100.00
63111;BME280;49201;53.426;10.300;2023-03-18T01:04:51;100866.19;;;9.89;100.00
63111;BME280;49201;53.426;10.300;2023-03-18T01:07:17;100853.41;;;9.89;100.00
63111;BME280;49201;53.426;10.300;2023-03-18T01:09:44;100861.94;;;9.90;100.00
63111;BME280;49201;53.426;10.300;2023-03-18T01:12:10;100861.91;;;9.88;100.00
63111;BME280;49201;53.426;10.300;2023-03-18T01:14:37;100850.81;;;9.88;100.00
63111;BME280;49201;53.426;10.300;2023-03-18T01:17:04;100861.94;;;9.91;100.00
63111;BME280;49201;53.426;10.300;2023-03-18T01:19:30;100857.63;;;9.89;100.00
63111;BME280;49201;53.426;10.300;2023-03-18T01:21:56;100855.13;;;9.90;100.00
63111;BME280;49201;53.426;10.300;2023-03-18T01:24:22;100853.44;;;9.91;100.00
63111;BME280;49201;53.426;10.300;2023-03-18T01:26:47;100850.03;;;9.92;100.00
63111;BME280;49201;53.426;10.300;2023-03-18T01:29:13;100849.16;;;9.91;100.00
63111;BME280;49201;53.426;10.300;2023-03-18T01:31:38;100849.16;;;9.91;100.00
63111;BME280;49201;53.426;10.300;2023-03-18T01:34:10;100853.44;;;9.91;100.00
63111;BME280;49201;53.426;10.300;2023-03-18T01:36:44;100854.28;;;9.91;100.00
63111;BME280;49201;53.426;10.300;2023-03-18T01:39:12;100855.13;;;9.90;100.00
63111;BME280;49201;53.426;10.300;2023-03-18T01:41:38;100855.13;;;9.90;100.00
63111;BME280;49201;53.426;10.300;2023-03-18T01:44:17;100867.91;;;9.90;100.00
63111;BME280;49201;53.426;10.300;2023-03-18T01:46:49;100867.06;;;9.90;100.00
63111;BME280;49201;53.426;10.300;2023-03-18T01:49:35;100873.03;;;9.90;100.00
63111;BME280;49201;53.426;10.300;2023-03-18T01:52:12;100880.66;;;9.89;100.00
63111;BME280;49201;53.426;10.300;2023-03-18T01:54:45;100873.81;;;9.88;100.00
63111;BME280;49201;53.426;10.300;2023-03-18T01:57:12;100866.19;;;9.89;100.00
63111;BME280;49201;53.426;10.300;2023-03-18T01:59:42;100865.31;;;9.89;100.00
63111;BME280;49201;53.426;10.300;2023-03-18T02:02:10;100862.78;;;9.90;100.00
63111;BME280;49201;53.426;10.300;2023-03-18T02:04:40;100867.91;;;9.90;100.00
63111;BME280;49201;53.426;10.300;2023-03-18T02:07:14;100871.34;;;9.91;100.00
63111;BME280;49201;53.426;10.300;2023-03-18T02:09:40;100871.34;;;9.91;100.00
63111;BME280;49201;53.426;10.300;2023-03-18T02:12:05;100869.66;;;9.93;100.00
63111;BME280;49201;53.426;10.300;2023-03-18T02:14:33;100872.22;;;9.93;100.00
63111;BME280;49201;53.426;10.300;2023-03-18T02:17:11;100876.50;;;9.94;100.00
63111;BME280;49201;53.426;10.300;2023-03-18T02:22:39;100882.41;;;9.91;100.00
63111;BME280;49201;53.426;10.300;2023-03-18T02:27:43;100879.84;;;9.91;100.00
63111;BME280;49201;53.426;10.300;2023-03-18T02:30:22;100882.41;;;9.90;100.00
63111;BME280;49201;53.426;10.300;2023-03-18T02:32:53;100878.13;;;9.90;100.00
63111;BME280;49201;53.426;10.300;2023-03-18T02:35:20;100885.81;;;9.90;100.00
63111;BME280;49201;53.426;10.300;2023-03-18T02:37:48;100880.72;;;9.92;100.00
63111;BME280;49201;53.426;10.300;2023-03-18T02:40:22;100886.72;;;9.92;100.00
63111;BME280;49201;53.426;10.300;2023-03-18T02:42:49;100883.28;;;9.92;100.00
63111;BME280;49201;53.426;10.300;2023-03-18T02:48:10;100875.56;;;9.90;100.00
63111;BME280;49201;53.426;10.300;2023-03-18T02:50:37;100875.50;;;9.87;100.00
63111;BME280;49201;53.426;10.300;2023-03-18T02:53:04;100883.13;;;9.84;100.00
63111;BME280;49201;53.426;10.300;2023-03-18T02:55:30;100882.28;;;9.85;100.00
63111;BME280;49201;53.426;10.300;2023-03-18T02:57:55;100881.44;;;9.86;100.00
63111;BME280;49201;53.426;10.300;2023-03-18T03:00:22;100878.88;;;9.86;100.00
63111;BME280;49201;53.426;10.300;2023-03-18T03:02:47;100876.28;;;9.85;100.00
63111;BME280;49201;53.426;10.300;2023-03-18T03:05:13;100878.88;;;9.86;100.00
63111;BME280;49201;53.426;10.300;2023-03-18T03:07:39;100882.25;;;9.84;100.00
63111;BME280;49201;53.426;10.300;2023-03-18T03:10:07;100879.69;;;9.84;100.00
63111;BME280;49201;53.426;10.300;2023-03-18T03:12:33;100878.84;;;9.83;100.00
63111;BME280;49201;53.426;10.300;2023-03-18T03:15:03;100880.47;;;9.81;100.00
63111;BME280;49201;53.426;10.300;2023-03-18T03:17:30;100870.22;;;9.80;100.00
63111;BME280;49201;53.426;10.300;2023-03-18T03:19:56;100871.94;;;9.79;100.00
63111;BME280;49201;53.426;10.300;2023-03-18T03:22:22;100877.09;;;9.81;100.00
63111;BME280;49201;53.426;10.300;2023-03-18T03:24:47;100884.72;;;9.79;100.00
63111;BME280;49201;53.426;10.300;2023-03-18T03:27:13;100879.63;;;9.81;100.00
63111;BME280;49201;53.426;10.300;2023-03-18T03:29:38;100876.16;;;9.79;100.00
63111;BME280;49201;53.426;10.300;2023-03-18T03:32:04;100881.28;;;9.79;100.00
63111;BME280;49201;53.426;10.300;2023-03-18T03:34:30;100889.78;;;9.78;100.00
63111;BME280;49201;53.426;10.300;2023-03-18T03:36:55;100883.84;;;9.79;100.00
63111;BME280;49201;53.426;10.300;2023-03-18T03:39:23;100883.00;;;9.78;100.00
63111;BME280;49201;53.426;10.300;2023-03-18T03:41:49;100877.84;;;9.77;100.00
63111;BME280;49201;53.426;10.300;2023-03-18T03:44:15;100882.94;;;9.77;100.00
63111;BME280;49201;53.426;10.300;2023-03-18T03:46:41;100885.50;;;9.77;100.00
63111;BME280;49201;53.426;10.300;2023-03-18T03:49:06;100875.28;;;9.77;100.00
63111;BME280;49201;53.426;10.300;2023-03-18T03:51:32;100876.88;;;9.73;100.00
63111;BME280;49201;53.426;10.300;2023-03-18T03:53:57;100875.13;;;9.71;100.00
63111;BME280;49201;53.426;10.300;2023-03-18T03:56:23;100876.91;;;9.75;100.00
63111;BME280;49201;53.426;10.300;2023-03-18T03:58:49;100884.59;;;9.75;100.00
63111;BME280;49201;53.426;10.300;2023-03-18T04:01:15;100876.00;;;9.71;100.00
63111;BME280;49201;53.426;10.300;2023-03-18T04:03:42;100877.66;;;9.71;100.00
63111;BME280;49201;53.426;10.300;2023-03-18T04:06:08;100883.66;;;9.71;100.00
63111;BME280;49201;53.426;10.300;2023-03-18T04:08:41;100879.38;;;9.70;100.00
63111;BME280;49201;53.426;10.300;2023-03-18T04:11:06;100882.78;;;9.71;100.00
63111;BME280;49201;53.426;10.300;2023-03-18T04:13:32;100883.66;;;9.71;100.00
63111;BME280;49201;53.426;10.300;2023-03-18T04:15:58;100884.53;;;9.72;100.00
63111;BME280;49201;53.426;10.300;2023-03-18T04:18:24;100884.53;;;9.72;100.00
63111;BME280;49201;53.426;10.300;2023-03-18T04:20:50;100900.75;;;9.74;100.00
63111;BME280;49201;53.426;10.300;2023-03-18T04:23:24;100899.03;;;9.73;100.00
63111;BME280;49201;53.426;10.300;2023-03-18T04:25:51;100903.25;;;9.71;100.00
63111;BME280;49201;53.426;10.300;2023-03-18T04:28:17;100904.13;;;9.71;100.00
63111;BME280;49201;53.426;10.300;2023-03-18T04:30:42;100900.69;;;9.71;100.00
63111;BME280;49201;53.426;10.300;2023-03-18T04:33:12;100900.69;;;9.71;100.00
63111;BME280;49201;53.426;10.300;2023-03-18T04:35:39;100897.28;;;9.70;100.00
63111;BME280;49201;53.426;10.300;2023-03-18T04:38:08;100899.78;;;9.69;100.00
63111;BME280;49201;53.426;10.300;2023-03-18T04:40:34;100898.13;;;9.69;100.00
63111;BME280;49201;53.426;10.300;2023-03-18T04:42:59;100906.59;;;9.67;100.00
63111;BME280;49201;53.426;10.300;2023-03-18T04:45:27;100902.31;;;9.67;100.00
63111;BME280;49201;53.426;10.300;2023-03-18T04:47:56;100910.03;;;9.69;100.00
63111;BME280;49201;53.426;10.300;2023-03-18T04:50:22;100908.31;;;9.68;100.00
63111;BME280;49201;53.426;10.300;2023-03-18T04:52:49;100914.22;;;9.65;100.00
63111;BME280;49201;53.426;10.300;2023-03-18T04:55:20;100910.78;;;9.65;100.00
63111;BME280;49201;53.426;10.300;2023-03-18T04:57:46;100899.66;;;9.64;100.00
63111;BME280;49201;53.426;10.300;2023-03-18T05:00:17;100905.75;;;9.68;100.00
63111;BME280;49201;53.426;10.300;2023-03-18T05:02:48;100911.66;;;9.65;100.00
63111;BME280;49201;53.426;10.300;2023-03-18T05:05:13;100921.88;;;9.65;100.00
63111;BME280;49201;53.426;10.300;2023-03-18T05:07:44;100932.91;;;9.63;100.00
63111;BME280;49201;53.426;10.300;2023-03-18T05:10:12;100922.63;;;9.61;100.00
63111;BME280;49201;53.426;10.300;2023-03-18T05:12:38;100923.47;;;9.62;100.00
63111;BME280;49201;53.426;10.300;2023-03-18T05:15:06;100921.72;;;9.59;100.00
63111;BME280;49201;53.426;10.300;2023-03-18T05:17:34;100916.59;;;9.59;100.00
63111;BME280;49201;53.426;10.300;2023-03-18T05:20:02;100908.97;;;9.61;100.00
63111;BME280;49201;53.426;10.300;2023-03-18T05:22:28;100899.53;;;9.58;100.00
63111;BME280;49201;53.426;10.300;2023-03-18T05:25:02;100898.69;;;9.59;100.00
63111;BME280;49201;53.426;10.300;2023-03-18T05:27:28;100909.75;;;9.58;100.00
63111;BME280;49201;53.426;10.300;2023-03-18T05:29:59;100915.75;;;9.59;100.00
63111;BME280;49201;53.426;10.300;2023-03-18T05:32:32;100922.59;;;9.60;100.00
63111;BME280;49201;53.426;10.300;2023-03-18T05:35:01;100926.88;;;9.61;100.00
63111;BME280;49201;53.426;10.300;2023-03-18T05:37:29;100914.09;;;9.61;100.00
63111;BME280;49201;53.426;10.300;2023-03-18T05:40:01;100911.47;;;9.59;100.00
63111;BME280;49201;53.426;10.300;2023-03-18T05:42:29;100913.19;;;9.59;100.00
63111;BME280;49201;53.426;10.300;2023-03-18T05:44:54;100925.09;;;9.58;100.00
63111;BME280;49201;53.426;10.300;2023-03-18T05:47:23;100934.53;;;9.61;100.00
63111;BME280;49201;53.426;10.300;2023-03-18T05:50:01;100940.56;;;9.63;100.00
63111;BME280;49201;53.426;10.300;2023-03-18T05:52:27;100939.69;;;9.62;100.00
63111;BME280;49201;53.426;10.300;2023-03-18T05:54:56;100938.00;;;9.63;100.00
63111;BME280;49201;53.426;10.300;2023-03-18T05:57:26;100941.41;;;9.63;100.00
63111;BME280;49201;53.426;10.300;2023-03-18T05:59:58;100942.28;;;9.64;100.00
63111;BME280;49201;53.426;10.300;2023-03-18T06:02:24;100946.47;;;9.62;100.00
63111;BME280;49201;53.426;10.300;2023-03-18T06:04:51;100943.91;;;9.60;100.00
63111;BME280;49201;53.426;10.300;2023-03-18T06:07:17;100940.53;;;9.61;100.00
63111;BME280;49201;53.426;10.300;2023-03-18T06:09:44;100948.22;;;9.63;100.00
63111;BME280;49201;53.426;10.300;2023-03-18T06:12:10;100949.97;;;9.64;100.00
63111;BME280;49201;53.426;10.300;2023-03-18T06:14:36;100949.97;;;9.64;100.00
63111;BME280;49201;53.426;10.300;2023-03-18T06:17:03;100968.69;;;9.64;100.00
63111;BME280;49201;53.426;10.300;2023-03-18T06:19:29;100962.78;;;9.65;100.00
63111;BME280;49201;53.426;10.300;2023-03-18T06:21:56;100958.50;;;9.66;100.00
63111;BME280;49201;53.426;10.300;2023-03-18T06:24:21;100967.06;;;9.66;100.00
63111;BME280;49201;53.426;10.300;2023-03-18T06:26:47;100970.50;;;9.68;100.00
63111;BME280;49201;53.426;10.300;2023-03-18T06:29:13;100965.44;;;9.70;100.00
63111;BME280;49201;53.426;10.300;2023-03-18T06:31:38;100970.56;;;9.70;100.00
63111;BME280;49201;53.426;10.300;2023-03-18T06:34:06;100968.91;;;9.72;100.00
63111;BME280;49201;53.426;10.300;2023-03-18T06:36:34;100974.03;;;9.72;100.00
63111;BME280;49201;53.426;10.300;2023-03-18T06:39:04;100965.56;;;9.74;100.00
63111;BME280;49201;53.426;10.300;2023-03-18T06:41:30;100956.34;;;9.81;100.00
63111;BME280;49201;53.426;10.300;2023-03-18T06:44:22;100955.66;;;9.88;100.00
63111;BME280;49201;53.426;10.300;2023-03-18T06:46:48;100972.91;;;9.95;100.00
63111;BME280;49201;53.426;10.300;2023-03-18T06:49:15;100955.91;;;9.98;100.00
63111;BME280;49201;53.426;10.300;2023-03-18T06:51:47;100956.97;;;10.05;100.00
63111;BME280;49201;53.426;10.300;2023-03-18T06:54:14;100963.97;;;10.13;100.00
63111;BME280;49201;53.426;10.300;2023-03-18T06:56:41;100972.63;;;10.18;100.00
63111;BME280;49201;53.426;10.300;2023-03-18T06:59:13;100976.22;;;10.26;100.00
63111;BME280;49201;53.426;10.300;2023-03-18T07:01:39;100980.56;;;10.30;100.00
63111;BME280;49201;53.426;10.300;2023-03-18T07:04:05;100993.63;;;10.41;100.00
63111;BME280;49201;53.426;10.300;2023-03-18T07:06:31;100992.03;;;10.47;100.00
63111;BME280;49201;53.426;10.300;2023-03-18T07:08:57;100998.16;;;10.54;100.00
63111;BME280;49201;53.426;10.300;2023-03-18T07:11:24;100992.19;;;10.53;100.00
63111;BME280;49201;53.426;10.300;2023-03-18T07:13:50;101000.88;;;10.60;100.00
63111;BME280;49201;53.426;10.300;2023-03-18T07:16:25;100999.31;;;10.66;100.00
63111;BME280;49201;53.426;10.300;2023-03-18T07:18:51;101001.13;;;10.72;100.00
63111;BME280;49201;53.426;10.300;2023-03-18T07:21:17;101001.28;;;10.79;100.00
63111;BME280;49201;53.426;10.300;2023-03-18T07:23:45;100998.09;;;10.89;100.00
63111;BME280;49201;53.426;10.300;2023-03-18T07:26:11;101006.88;;;11.02;100.00
63111;BME280;49201;53.426;10.300;2023-03-18T07:28:37;101000.22;;;11.11;100.00
63111;BME280;49201;53.426;10.300;2023-03-18T07:31:02;101008.88;;;11.16;100.00
63111;BME280;49201;53.426;10.300;2023-03-18T07:33:28;101003.88;;;11.22;100.00
63111;BME280;49201;53.426;10.300;2023-03-18T07:35:53;101011.78;;;11.33;100.00
63111;BME280;49201;53.426;10.300;2023-03-18T07:38:19;101006.13;;;11.50;100.00
63111;BME280;49201;53.426;10.300;2023-03-18T07:40:45;101010.75;;;11.69;100.00
63111;BME280;49201;53.426;10.300;2023-03-18T07:43:10;101011.00;;;11.83;100.00
63111;BME280;49201;53.426;10.300;2023-03-18T07:45:36;101015.16;;;11.76;100.00
63111;BME280;49201;53.426;10.300;2023-03-18T07:48:01;101028.75;;;11.71;100.00
63111;BME280;49201;53.426;10.300;2023-03-18T07:50:27;101037.25;;;11.68;100.00
63111;BME280;49201;53.426;10.300;2023-03-18T07:52:52;101036.41;;;11.69;100.00
63111;BME280;49201;53.426;10.300;2023-03-18T07:55:18;101038.91;;;11.66;100.00
63111;BME280;49201;53.426;10.300;2023-03-18T07:57:44;101033.84;;;11.69;100.00
63111;BME280;49201;53.426;10.300;2023-03-18T08:00:10;101027.88;;;11.70;100.00
63111;BME280;49201;53.426;10.300;2023-03-18T08:02:40;101029.53;;;11.67;100.00
63111;BME280;49201;53.426;10.300;2023-03-18T08:05:05;101032.97;;;11.67;100.00
63111;BME280;49201;53.426;10.300;2023-03-18T08:07:32;101023.50;;;11.65;100.00
63111;BME280;49201;53.426;10.300;2023-03-18T08:09:59;101040.66;;;11.67;100.00
63111;BME280;49201;53.426;10.300;2023-03-18T08:12:25;101038.06;;;11.66;100.00
63111;BME280;49201;53.426;10.300;2023-03-18T08:14:50;101041.53;;;11.69;100.00
63111;BME280;49201;53.426;10.300;2023-03-18T08:17:16;101049.31;;;11.74;100.00
63111;BME280;49201;53.426;10.300;2023-03-18T08:19:42;101052.75;;;11.74;100.00
63111;BME280;49201;53.426;10.300;2023-03-18T08:22:07;101051.09;;;11.78;100.00
63111;BME280;49201;53.426;10.300;2023-03-18T08:24:35;101056.28;;;11.81;100.00
63111;BME280;49201;53.426;10.300;2023-03-18T08:27:02;101062.31;;;11.83;100.00
63111;BME280;49201;53.426;10.300;2023-03-18T08:29:27;101057.22;;;11.86;100.00
63111;BME280;49201;53.426;10.300;2023-03-18T08:31:53;101050.56;;;11.95;100.00
63111;BME280;49201;53.426;10.300;2023-03-18T08:34:18;101048.13;;;12.03;100.00
63111;BME280;49201;53.426;10.300;2023-03-18T08:36:44;101055.91;;;12.09;100.00
63111;BME280;49201;53.426;10.300;2023-03-18T08:39:10;101056.88;;;12.15;100.00
63111;BME280;49201;53.426;10.300;2023-03-18T08:41:36;101066.41;;;12.21;100.00
63111;BME280;49201;53.426;10.300;2023-03-18T08:44:02;101075.75;;;12.17;100.00
63111;BME280;49201;53.426;10.300;2023-03-18T08:46:29;101071.50;;;12.19;100.00
63111;BME280;49201;53.426;10.300;2023-03-18T08:48:55;101063.91;;;12.25;100.00
63111;BME280;49201;53.426;10.300;2023-03-18T08:51:21;101065.69;;;12.29;100.00
63111;BME280;49201;53.426;10.300;2023-03-18T08:53:47;101069.16;;;12.33;100.00
63111;BME280;49201;53.426;10.300;2023-03-18T08:56:12;101064.84;;;12.32;100.00
63111;BME280;49201;53.426;10.300;2023-03-18T08:58:39;101068.28;;;12.31;100.00
63111;BME280;49201;53.426;10.300;2023-03-18T09:01:04;101077.72;;;12.33;100.00
63111;BME280;49201;53.426;10.300;2023-03-18T09:03:30;101075.19;;;12.35;100.00
63111;BME280;49201;53.426;10.300;2023-03-18T09:05:56;101082.91;;;12.36;100.00
63111;BME280;49201;53.426;10.300;2023-03-18T09:08:22;101082.91;;;12.36;100.00
63111;BME280;49201;53.426;10.300;2023-03-18T09:10:52;101091.44;;;12.35;100.00
63111;BME280;49201;53.426;10.300;2023-03-18T09:13:21;101088.00;;;12.33;100.00
63111;BME280;49201;53.426;10.300;2023-03-18T09:15:46;101094.03;;;12.37;100.00
63111;BME280;49201;53.426;10.300;2023-03-18T09:18:12;101092.50;;;12.46;100.00
63111;BME280;49201;53.426;10.300;2023-03-18T09:20:41;101097.84;;;12.60;100.00
63111;BME280;49201;53.426;10.300;2023-03-18T09:23:08;101109.09;;;12.68;100.00
63111;BME280;49201;53.426;10.300;2023-03-18T09:25:34;101115.91;;;12.66;100.00
63111;BME280;49201;53.426;10.300;2023-03-18T09:27:59;101115.06;;;12.65;100.00
63111;BME280;49201;53.426;10.300;2023-03-18T09:30:26;101116.97;;;12.78;100.00
63111;BME280;49201;53.426;10.300;2023-03-18T09:32:52;101113.69;;;12.88;100.00
63111;BME280;49201;53.426;10.300;2023-03-18T09:35:18;101125.72;;;12.91;100.00
63111;BME280;49201;53.426;10.300;2023-03-18T09:37:44;101124.00;;;12.91;100.00
63111;BME280;49201;53.426;10.300;2023-03-18T09:40:25;101128.34;;;12.95;100.00
63111;BME280;49201;53.426;10.300;2023-03-18T09:45:43;101132.19;;;13.22;100.00
63111;BME280;49201;53.426;10.300;2023-03-18T09:48:50;101128.75;;;13.23;100.00
63111;BME280;49201;53.426;10.300;2023-03-18T09:54:45;101131.94;;;13.72;100.00
63111;BME280;49201;53.426;10.300;2023-03-18T09:57:28;101129.22;;;14.38;100.00
63111;BME280;49201;53.426;10.300;2023-03-18T10:00:16;101120.94;;;14.78;100.00
63111;BME280;49201;53.426;10.300;2023-03-18T10:05:43;101086.03;;;15.40;100.00
63111;BME280;49201;53.426;10.300;2023-03-18T10:11:22;101115.94;;;15.03;100.00
63111;BME280;49201;53.426;10.300;2023-03-18T10:14:27;101130.34;;;14.73;100.00
63111;BME280;49201;53.426;10.300;2023-03-18T10:17:20;101129.38;;;14.60;100.00
63111;BME280;49201;53.426;10.300;2023-03-18T10:19:57;101135.31;;;14.50;100.00
63111;BME280;49201;53.426;10.300;2023-03-18T10:22:51;101138.72;;;14.43;100.00
63111;BME280;49201;53.426;10.300;2023-03-18T10:25:35;101137.00;;;14.47;100.00
63111;BME280;49201;53.426;10.300;2023-03-18T10:33:45;101151.91;;;14.84;100.00
63111;BME280;49201;53.426;10.300;2023-03-18T10:39:01;101131.56;;;15.29;100.00
63111;BME280;49201;53.426;10.300;2023-03-18T10:41:33;101131.47;;;15.11;100.00
63111;BME280;49201;53.426;10.300;2023-03-18T10:46:55;101146.78;;;14.87;100.00
63111;BME280;49201;53.426;10.300;2023-03-18T10:49:34;101154.41;;;14.75;100.00
63111;BME280;49201;53.426;10.300;2023-03-18T10:52:06;101144.91;;;14.69;100.00
63111;BME280;49201;53.426;10.300;2023-03-18T10:54:44;101151.81;;;14.70;100.00
63111;BME280;49201;53.426;10.300;2023-03-18T10:57:17;101155.16;;;14.60;100.00
63111;BME280;49201;53.426;10.300;2023-03-18T10:59:44;101153.28;;;14.43;100.00
63111;BME280;49201;53.426;10.300;2023-03-18T11:02:19;101169.63;;;14.42;100.00
63111;BME280;49201;53.426;10.300;2023-03-18T11:04:51;101166.78;;;14.18;100.00
63111;BME280;49201;53.426;10.300;2023-03-18T11:07:22;101163.31;;;14.17;100.00
63111;BME280;49201;53.426;10.300;2023-03-18T11:09:50;101153.25;;;14.40;100.00
63111;BME280;49201;53.426;10.300;2023-03-18T11:12:18;101151.00;;;14.77;100.00
63111;BME280;49201;53.426;10.300;2023-03-18T11:14:48;101142.44;;;14.81;100.00
63111;BME280;49201;53.426;10.300;2023-03-18T11:17:30;101151.75;;;14.64;100.00
63111;BME280;49201;53.426;10.300;2023-03-18T11:20:23;101149.22;;;14.72;100.00
63111;BME280;49201;53.426;10.300;2023-03-18T11:23:03;101143.41;;;14.95;100.00
63111;BME280;49201;53.426;10.300;2023-03-18T11:25:37;101131.47;;;15.17;100.00
63111;BME280;49201;53.426;10.300;2023-03-18T11:28:05;101138.34;;;15.18;100.00
63111;BME280;49201;53.426;10.300;2023-03-18T11:30:46;101117.03;;;15.44;100.00
63111;BME280;49201;53.426;10.300;2023-03-18T11:33:15;101048.31;;;16.59;100.00
63111;BME280;49201;53.426;10.300;2023-03-18T11:38:33;101137.78;;;15.70;100.00
63111;BME280;49201;53.426;10.300;2023-03-18T11:41:27;101135.28;;;16.00;100.00
63111;BME280;49201;53.426;10.300;2023-03-18T11:43:59;100781.78;;;22.49;100.00
63111;BME280;49201;53.426;10.300;2023-03-18T11:46:31;99883.22;;;28.77;44.25
63111;BME280;49201;53.426;10.300;2023-03-18T11:48:58;99845.91;;;28.08;40.39
63111;BME280;49201;53.426;10.300;2023-03-18T11:54:13;100734.72;;;30.12;37.13
63111;BME280;49201;53.426;10.300;2023-03-18T11:56:45;100741.34;;;31.25;34.94
63111;BME280;49201;53.426;10.300;2023-03-18T11:59:31;100784.75;;;32.37;32.94
63111;BME280;49201;53.426;10.300;2023-03-18T12:02:37;100874.69;;;34.06;30.00
63111;BME280;49201;53.426;10.300;2023-03-18T12:27:22;101214.25;;;22.10;63.16
63111;BME280;49201;53.426;10.300;2023-03-18T12:30:26;101233.25;;;21.30;70.22
63111;BME280;49201;53.426;10.300;2023-03-18T12:36:40;101239.53;;;21.18;70.63
63111;BME280;49201;53.426;10.300;2023-03-18T12:42:16;101194.25;;;21.69;62.17
63111;BME280;49201;53.426;10.300;2023-03-18T12:44:54;101208.94;;;22.16;66.97
63111;BME280;49201;53.426;10.300;2023-03-18T12:52:26;101192.56;;;22.48;62.13
63111;BME280;49201;53.426;10.300;2023-03-18T12:55:37;101188.31;;;21.17;68.02
63111;BME280;49201;53.426;10.300;2023-03-18T12:58:41;101246.88;;;20.95;78.86
63111;BME280;49201;53.426;10.300;2023-03-18T13:01:06;101230.84;;;21.18;71.33
63111;BME280;49201;53.426;10.300;2023-03-18T13:03:42;101225.69;;;20.62;70.64
63111;BME280;49201;53.426;10.300;2023-03-18T13:06:36;101276.75;;;20.05;83.55
63111;BME280;49201;53.426;10.300;2023-03-18T13:09:31;101254.19;;;20.69;80.30
63111;BME280;49201;53.426;10.300;2023-03-18T13:12:01;101233.34;;;21.25;76.79
63111;BME280;49201;53.426;10.300;2023-03-18T13:17:00;101188.63;;;21.46;70.37
63111;BME280;49201;53.426;10.300;2023-03-18T13:19:27;101205.22;;;20.94;74.24
63111;BME280;49201;53.426;10.300;2023-03-18T13:27:35;101220.59;;;20.54;75.46
63111;BME280;49201;53.426;10.300;2023-03-18T13:41:12;101234.47;;;19.91;79.51
63111;BME280;49201;53.426;10.300;2023-03-18T13:43:44;101247.53;;;20.50;78.67
63111;BME280;49201;53.426;10.300;2023-03-18T13:46:28;101232.38;;;20.19;79.70
63111;BME280;49201;53.426;10.300;2023-03-18T13:48:56;101221.84;;;20.29;75.35
63111;BME280;49201;53.426;10.300;2023-03-18T13:53:54;101225.78;;;19.91;77.79
63111;BME280;49201;53.426;10.300;2023-03-18T13:59:05;101231.38;;;19.58;80.30
63111;BME280;49201;53.426;10.300;2023-03-18T14:01:33;101221.47;;;19.90;77.90
63111;BME280;49201;53.426;10.300;2023-03-18T14:04:28;101209.59;;;20.36;75.86
63111;BME280;49201;53.426;10.300;2023-03-18T14:07:17;101192.50;;;20.18;74.14
63111;BME280;49201;53.426;10.300;2023-03-18T14:10:06;101179.34;;;20.27;70.83
63111;BME280;49201;53.426;10.300;2023-03-18T14:15:22;101193.81;;;19.84;73.91
63111;BME280;49201;53.426;10.300;2023-03-18T14:17:53;101210.00;;;20.04;77.77
63111;BME280;49201;53.426;10.300;2023-03-18T14:20:43;101194.94;;;20.29;75.85
63111;BME280;49201;53.426;10.300;2023-03-18T14:23:28;101198.09;;;19.88;77.22
63111;BME280;49201;53.426;10.300;2023-03-18T14:26:05;101202.13;;;20.12;75.68
63111;BME280;49201;53.426;10.300;2023-03-18T14:28:43;101173.78;;;19.92;72.86